createdAt,value
2024-03-05T00:00:13.365Z,93298.56
2024-03-05T00:02:44.680Z,93311.81
2024-03-05T00:05:15.469Z,93320.19
2024-03-05T00:07:54.739Z,93281.72
2024-03-05T00:10:21.315Z,93314.34
2024-03-05T00:12:48.401Z,93322.03
2024-03-05T00:15:16.795Z,93305.56
2024-03-05T00:17:44.241Z,93310.03
2024-03-05T00:20:17.341Z,93291.03
2024-03-05T00:22:43.831Z,93308.69
2024-03-05T00:25:12.293Z,93320.66
2024-03-05T00:27:39.105Z,93309.66
2024-03-05T00:30:09.707Z,93255.94
2024-03-05T00:32:38.658Z,93304.13
2024-03-05T00:35:09.270Z,93301.06
2024-03-05T00:37:39.311Z,93295.84
2024-03-05T00:40:10.009Z,93325.13
2024-03-05T00:42:36.856Z,93317.47
2024-03-05T00:45:03.800Z,93264.97
2024-03-05T00:47:31.244Z,93304.25
2024-03-05T00:50:01.603Z,93321.44
2024-03-05T00:52:28.134Z,93312.78
2024-03-05T00:54:54.628Z,93311.50
2024-03-05T00:57:21.281Z,93307.19
2024-03-05T00:59:49.648Z,93298.94
2024-03-05T01:02:16.677Z,93257.28
2024-03-05T01:04:43.302Z,93284.34
2024-03-05T01:07:10.876Z,93322.41
2024-03-05T01:09:37.364Z,93313.91
2024-03-05T01:12:09.315Z,93300.75
2024-03-05T01:14:36.496Z,93275.22
2024-03-05T01:17:05.815Z,93316.13
2024-03-05T01:19:34.736Z,93306.84
2024-03-05T01:22:02.146Z,93321.00
2024-03-05T01:24:28.999Z,93270.16
2024-03-05T01:27:01.806Z,93334.50
2024-03-05T01:29:28.469Z,93331.66
2024-03-05T01:31:59.989Z,93315.59
2024-03-05T01:34:27.114Z,93298.66
2024-03-05T01:36:58.405Z,93289.75
2024-03-05T01:39:32.002Z,93322.38
2024-03-05T01:41:58.564Z,93334.47
2024-03-05T01:44:26.238Z,93304.41
2024-03-05T01:46:57.242Z,93330.13
2024-03-05T01:49:26.098Z,93312.75
2024-03-05T01:51:54.976Z,93330.28
2024-03-05T01:54:23.256Z,93325.16
2024-03-05T01:56:54.913Z,93319.69
2024-03-05T01:59:22.906Z,93275.22
2024-03-05T02:01:49.682Z,93250.69
2024-03-05T02:04:17.088Z,93308.94
2024-03-05T02:06:44.194Z,93327.22
2024-03-05T02:09:12.419Z,93303.63
2024-03-05T02:11:49.606Z,93309.66
2024-03-05T02:14:23.227Z,93284.84
2024-03-05T02:16:51.685Z,93307.69
2024-03-05T02:19:18.330Z,93312.88
2024-03-05T02:21:47.302Z,93315.88
2024-03-05T02:24:13.850Z,93310.41
2024-03-05T02:26:40.468Z,93322.03
2024-03-05T02:29:10.199Z,93344.53
2024-03-05T02:31:37.259Z,93319.97
2024-03-05T02:34:06.171Z,93327.44
2024-03-05T02:36:33.028Z,93286.34
2024-03-05T02:38:59.794Z,93326.53
2024-03-05T02:41:26.225Z,93308.06
2024-03-05T02:43:52.996Z,93337.50
2024-03-05T02:46:20.740Z,93315.94
2024-03-05T02:48:47.460Z,93317.19
2024-03-05T02:51:13.944Z,93319.44
2024-03-05T02:53:40.458Z,93331.31
2024-03-05T02:56:14.129Z,93320.94
2024-03-05T02:58:41.377Z,93336.44
2024-03-05T03:01:09.297Z,93323.03
2024-03-05T03:03:36.163Z,93306.59
2024-03-05T03:06:03.961Z,93343.19
2024-03-05T03:08:30.855Z,93332.81
2024-03-05T03:10:58.476Z,93287.06
2024-03-05T03:13:25.298Z,93314.50
2024-03-05T03:15:51.831Z,93351.06
2024-03-05T03:18:18.439Z,93354.31
2024-03-05T03:20:45.289Z,93342.25
2024-03-05T03:23:11.734Z,93349.47
2024-03-05T03:25:41.945Z,93314.75
2024-03-05T03:28:09.062Z,93341.44
2024-03-05T03:30:35.592Z,93332.59
2024-03-05T03:33:02.063Z,93330.56
2024-03-05T03:35:28.573Z,93349.97
2024-03-05T03:37:55.005Z,93349.72
2024-03-05T03:40:24.700Z,93332.75
2024-03-05T03:42:52.277Z,93340.69
2024-03-05T03:48:11.413Z,93354.53
2024-03-05T03:50:38.605Z,93366.13
2024-03-05T03:53:06.366Z,93340.50
2024-03-05T03:55:32.851Z,93348.09
2024-03-05T03:57:59.346Z,93360.34
2024-03-05T04:00:33.861Z,93383.44
2024-03-05T04:03:00.777Z,93370.97
2024-03-05T04:05:27.240Z,93351.38
2024-03-05T04:07:53.988Z,93368.97
2024-03-05T04:10:20.533Z,93370.47
2024-03-05T04:12:47.092Z,93373.38
2024-03-05T04:15:13.959Z,93337.84
2024-03-05T04:17:41.114Z,93332.25
2024-03-05T04:20:10.202Z,93329.91
2024-03-05T04:22:40.964Z,93386.53
2024-03-05T04:28:00.851Z,93325.94
2024-03-05T04:30:28.952Z,93370.34
2024-03-05T04:33:04.917Z,93349.19
2024-03-05T04:35:31.647Z,93376.88
2024-03-05T04:37:58.568Z,93403.84
2024-03-05T04:40:25.323Z,93370.47
2024-03-05T04:42:51.923Z,93394.91
2024-03-05T04:45:19.284Z,93398.50
2024-03-05T04:47:46.054Z,93383.31
2024-03-05T04:50:13.757Z,93373.66
2024-03-05T04:52:40.244Z,93374.53
2024-03-05T04:55:07.202Z,93412.59
2024-03-05T04:57:34.097Z,93375.66
2024-03-05T05:00:00.797Z,93405.59
2024-03-05T05:02:27.374Z,93396.66
2024-03-05T05:04:57.063Z,93401.34
2024-03-05T05:07:24.971Z,93375.09
2024-03-05T05:09:51.672Z,93405.81
2024-03-05T05:12:18.628Z,93376.50
2024-03-05T05:14:45.164Z,93396.28
2024-03-05T05:17:13.645Z,93414.16
2024-03-05T05:19:42.117Z,93417.53
2024-03-05T05:22:08.721Z,93403.25
2024-03-05T05:24:37.172Z,93419.66
2024-03-05T05:27:04.736Z,93405.81
2024-03-05T05:29:40.029Z,93384.41
2024-03-05T05:32:09.056Z,93394.41
2024-03-05T05:34:36.440Z,93384.03
2024-03-05T05:37:03.079Z,93389.38
2024-03-05T05:39:29.559Z,93411.03
2024-03-05T05:41:56.092Z,93379.88
2024-03-05T05:44:26.594Z,93408.53
2024-03-05T05:46:53.218Z,93400.94
2024-03-05T05:49:22.726Z,93427.66
2024-03-05T05:51:50.447Z,93381.59
2024-03-05T05:54:19.907Z,93360.94
2024-03-05T05:56:49.605Z,93439.56
2024-03-05T05:59:17.227Z,93300.50
2024-03-05T06:01:45.432Z,93373.44
2024-03-05T06:04:13.546Z,93327.34
2024-03-05T06:06:40.300Z,93368.34
2024-03-05T06:09:10.934Z,93244.44
2024-03-05T06:11:40.526Z,93418.81
2024-03-05T06:14:10.007Z,93436.50
2024-03-05T06:16:36.597Z,93433.56
2024-03-05T06:19:03.098Z,93396.69
2024-03-05T06:21:30.837Z,93430.94
2024-03-05T06:23:57.302Z,93396.03
2024-03-05T06:26:24.207Z,93445.00
2024-03-05T06:28:50.710Z,93448.56
2024-03-05T06:31:17.502Z,93433.34
2024-03-05T06:33:45.415Z,93396.09
2024-03-05T06:36:13.582Z,93463.03
2024-03-05T06:38:40.289Z,93388.53
2024-03-05T06:41:06.848Z,93440.00
2024-03-05T06:43:42.817Z,93463.78
2024-03-05T06:46:14.377Z,93444.47
2024-03-05T06:48:48.705Z,93433.09
2024-03-05T06:51:28.187Z,93442.50
2024-03-05T06:54:13.416Z,93426.84
2024-03-05T06:56:42.682Z,93440.53
2024-03-05T06:59:11.420Z,93432.22
2024-03-05T07:01:38.198Z,93443.84
2024-03-05T07:04:07.387Z,93448.69
2024-03-05T07:06:35.033Z,93460.69
2024-03-05T07:09:01.617Z,93463.84
2024-03-05T07:11:29.090Z,93449.19
2024-03-05T07:13:56.703Z,93453.03
2024-03-05T07:16:25.052Z,93471.34
2024-03-05T07:18:55.113Z,93468.50
2024-03-05T07:21:23.587Z,93485.34
2024-03-05T07:23:54.935Z,93472.13
2024-03-05T07:26:25.094Z,93464.44
2024-03-05T07:28:53.064Z,93484.91
2024-03-05T07:31:20.240Z,93494.06
2024-03-05T07:33:52.775Z,93491.72
2024-03-05T07:36:20.474Z,93455.28
2024-03-05T07:38:47.255Z,93485.47
2024-03-05T07:41:29.273Z,93470.13
2024-03-05T07:44:00.960Z,93482.41
2024-03-05T07:46:27.751Z,93469.41
2024-03-05T07:48:54.540Z,93470.00
2024-03-05T07:51:24.927Z,93468.16
2024-03-05T07:53:55.277Z,93463.84
2024-03-05T07:56:21.807Z,93461.38
2024-03-05T07:58:48.301Z,93479.06
2024-03-05T08:01:15.909Z,93481.38
2024-03-05T08:03:42.831Z,93475.06
2024-03-05T08:06:11.466Z,93458.13
2024-03-05T08:08:37.921Z,93447.56
2024-03-05T08:11:04.653Z,93469.31
2024-03-05T08:13:34.528Z,93503.31
2024-03-05T08:16:01.129Z,93489.50
2024-03-05T08:18:36.795Z,93474.66
2024-03-05T08:21:03.542Z,93495.06
2024-03-05T08:23:30.083Z,93510.00
2024-03-05T08:25:56.587Z,93464.44
2024-03-05T08:28:23.095Z,93494.19
2024-03-05T08:30:50.702Z,93492.88
2024-03-05T08:33:21.267Z,93486.56
2024-03-05T08:35:48.572Z,93501.03
2024-03-05T08:38:15.137Z,93481.81
2024-03-05T08:40:41.591Z,93427.81
2024-03-05T08:43:10.438Z,93502.00
2024-03-05T08:45:38.232Z,93495.59
2024-03-05T08:48:05.014Z,93494.91
2024-03-05T08:50:36.698Z,93495.13
2024-03-05T08:53:04.098Z,93494.41
2024-03-05T08:55:31.114Z,93493.03
2024-03-05T08:57:58.720Z,93488.34
2024-03-05T09:00:36.415Z,93459.75
2024-03-05T09:03:10.634Z,93495.75
2024-03-05T09:05:37.677Z,93508.94
2024-03-05T09:08:06.080Z,93517.88
2024-03-05T09:10:33.134Z,93486.00
2024-03-05T09:12:59.698Z,93499.69
2024-03-05T09:15:26.935Z,93512.47
2024-03-05T09:17:53.511Z,93464.41
2024-03-05T09:20:29.344Z,93517.97
2024-03-05T09:22:55.808Z,93515.03
2024-03-05T09:25:22.504Z,93511.25
2024-03-05T09:27:48.986Z,93522.69
2024-03-05T09:30:16.817Z,93492.31
2024-03-05T09:32:44.530Z,93481.63
2024-03-05T09:35:14.034Z,93508.38
2024-03-05T09:37:41.189Z,93522.72
2024-03-05T09:40:08.315Z,93500.59
2024-03-05T09:42:38.439Z,93474.19
2024-03-05T09:45:10.462Z,93519.13
2024-03-05T09:47:40.001Z,93533.47
2024-03-05T09:50:08.676Z,93525.34
2024-03-05T09:52:35.849Z,93529.50
2024-03-05T09:55:02.698Z,93499.44
2024-03-05T09:57:35.719Z,93541.59
2024-03-05T10:00:05.203Z,93494.41
2024-03-05T10:02:32.628Z,93533.94
2024-03-05T10:05:11.279Z,93531.38
2024-03-05T10:07:38.143Z,93520.09
2024-03-05T10:10:12.386Z,93539.69
2024-03-05T10:12:44.746Z,93542.06
2024-03-05T10:15:26.300Z,93532.13
2024-03-05T10:17:55.365Z,93559.38
2024-03-05T10:20:38.142Z,93561.59
2024-03-05T10:23:07.325Z,93556.03
2024-03-05T10:25:36.340Z,93530.31
2024-03-05T10:28:04.580Z,93532.41
2024-03-05T10:30:33.803Z,93525.84
2024-03-05T10:33:02.710Z,93511.63
2024-03-05T10:35:30.711Z,93517.56
2024-03-05T10:38:09.056Z,93558.56
2024-03-05T10:40:45.424Z,93565.19
2024-03-05T10:43:17.827Z,93482.06
2024-03-05T10:45:46.041Z,93547.63
2024-03-05T10:48:15.408Z,93541.06
2024-03-05T10:50:48.178Z,93558.72
2024-03-05T10:53:24.093Z,93538.16
2024-03-05T10:56:04.655Z,93540.56
2024-03-05T10:58:31.162Z,93553.88
2024-03-05T11:01:21.759Z,93543.03
2024-03-05T11:03:52.140Z,93573.72
2024-03-05T11:06:21.356Z,93527.38
2024-03-05T11:08:50.625Z,93558.00
2024-03-05T11:11:20.837Z,93574.47
2024-03-05T11:13:50.295Z,93570.06
2024-03-05T11:16:22.021Z,93552.19
2024-03-05T11:18:52.351Z,93535.44
2024-03-05T11:21:18.830Z,93568.59
2024-03-05T11:23:56.331Z,93516.00
2024-03-05T11:26:25.321Z,93536.47
2024-03-05T11:29:02.047Z,93569.28
2024-03-05T11:31:29.180Z,93554.19
2024-03-05T11:34:06.262Z,93534.88
2024-03-05T11:36:37.823Z,93538.75
2024-03-05T11:39:05.698Z,93565.66
2024-03-05T11:41:44.386Z,93559.00
2024-03-05T11:44:42.214Z,93555.34
2024-03-05T11:47:09.363Z,93547.53
2024-03-05T11:49:37.167Z,93545.28
2024-03-05T11:52:06.342Z,93539.91
2024-03-05T11:54:33.682Z,93551.66
2024-03-05T11:57:01.948Z,93551.56
2024-03-05T11:59:37.382Z,93532.75
2024-03-05T12:02:16.526Z,93529.66
2024-03-05T12:04:44.189Z,93539.31
2024-03-05T12:07:14.325Z,93549.84
2024-03-05T12:09:41.771Z,93558.13
2024-03-05T12:12:13.984Z,93555.41
2024-03-05T12:14:50.424Z,93569.53
2024-03-05T12:17:19.586Z,93536.63
2024-03-05T12:19:48.101Z,93554.31
2024-03-05T12:22:38.074Z,93570.91
2024-03-05T12:25:05.153Z,93420.44
2024-03-05T12:27:32.170Z,93535.13
2024-03-05T12:30:03.446Z,93432.41
2024-03-05T12:32:30.335Z,93489.00
2024-03-05T12:34:59.830Z,93474.16
2024-03-05T12:37:29.451Z,93560.00
2024-03-05T12:40:15.942Z,93413.19
2024-03-05T12:42:49.251Z,93562.88
2024-03-05T12:45:17.534Z,93549.41
2024-03-05T12:47:55.413Z,93547.19
2024-03-05T12:50:22.120Z,93554.63
2024-03-05T12:52:53.250Z,93562.81
2024-03-05T12:55:29.375Z,93457.84
2024-03-05T13:01:07.836Z,93547.34
2024-03-05T13:03:35.397Z,93515.13
2024-03-05T13:06:02.218Z,93504.00
2024-03-05T13:08:29.062Z,93422.88
2024-03-05T13:10:56.812Z,93438.91
2024-03-05T13:13:24.632Z,93465.44
2024-03-05T13:15:51.247Z,93520.13
2024-03-05T13:18:19.830Z,93387.22
2024-03-05T13:20:46.406Z,93534.63
2024-03-05T13:23:12.914Z,93428.88
2024-03-05T13:25:40.512Z,93437.09
2024-03-05T13:28:07.236Z,93474.72
2024-03-05T13:30:33.715Z,93493.31
2024-03-05T13:33:04.058Z,93493.66
2024-03-05T13:35:35.617Z,93467.34
2024-03-05T13:38:04.272Z,93420.44
2024-03-05T13:40:34.282Z,93429.81
2024-03-05T13:43:16.477Z,93358.16
2024-03-05T13:45:48.574Z,93444.44
2024-03-05T13:48:28.455Z,93455.44
2024-03-05T13:50:54.941Z,93474.25
2024-03-05T13:53:25.104Z,93467.75
2024-03-05T13:55:56.525Z,93478.16
2024-03-05T13:58:23.453Z,93533.94
2024-03-05T14:00:50.927Z,93497.72
2024-03-05T14:03:19.393Z,93510.75
2024-03-05T14:05:48.146Z,93474.41
2024-03-05T14:08:14.690Z,93514.53
2024-03-05T14:10:44.433Z,93498.47
2024-03-05T14:13:22.452Z,93484.50
2024-03-05T14:15:53.233Z,93500.56
2024-03-05T14:18:20.749Z,93517.34
2024-03-05T14:20:47.242Z,93523.41
2024-03-05T14:23:16.350Z,93495.38
2024-03-05T14:25:49.152Z,93514.03
2024-03-05T14:28:15.924Z,93527.19
2024-03-05T14:30:48.463Z,93510.59
2024-03-05T14:33:15.970Z,93515.22
2024-03-05T14:35:42.421Z,93535.56
2024-03-05T14:38:14.330Z,93511.53
2024-03-05T14:40:44.450Z,93501.41
2024-03-05T14:43:14.648Z,93365.31
2024-03-05T14:45:44.395Z,93516.25
2024-03-05T14:48:12.672Z,93421.91
2024-03-05T14:50:41.660Z,93517.50
2024-03-05T14:53:20.973Z,93515.97
2024-03-05T14:55:47.658Z,93541.28
2024-03-05T14:58:23.602Z,93558.75
2024-03-05T15:00:51.764Z,93539.00
2024-03-05T15:03:19.324Z,93513.59
2024-03-05T15:05:48.798Z,93515.19
2024-03-05T15:08:22.462Z,93509.72
2024-03-05T15:10:56.061Z,93533.38
2024-03-05T15:13:22.767Z,93549.03
2024-03-05T15:15:50.639Z,93554.19
2024-03-05T15:18:17.318Z,93536.91
2024-03-05T15:20:45.197Z,93552.31
2024-03-05T15:23:13.527Z,93528.31
2024-03-05T15:25:43.237Z,93517.06
2024-03-05T15:28:10.344Z,93507.72
2024-03-05T15:30:42.930Z,93543.53
2024-03-05T15:33:10.985Z,93531.03
2024-03-05T15:35:37.728Z,93536.91
2024-03-05T15:38:08.869Z,93527.47
2024-03-05T15:40:35.859Z,93547.13
2024-03-05T15:43:06.441Z,93531.94
2024-03-05T15:45:34.618Z,93536.47
2024-03-05T15:48:01.327Z,93551.53
2024-03-05T15:50:32.298Z,93538.72
2024-03-05T15:53:04.249Z,93515.94
2024-03-05T15:55:32.966Z,93521.63
2024-03-05T15:58:03.101Z,93556.16
2024-03-05T16:00:40.008Z,93442.84
2024-03-05T16:03:07.785Z,93551.88
2024-03-05T16:06:36.936Z,93545.38
2024-03-05T16:09:06.855Z,93547.00
2024-03-05T16:11:33.435Z,93543.69
2024-03-05T16:14:07.237Z,93501.06
2024-03-05T16:16:38.668Z,93522.75
2024-03-05T16:19:05.325Z,93534.13
2024-03-05T16:21:34.413Z,93489.03
2024-03-05T16:24:01.187Z,93497.28
2024-03-05T16:26:36.182Z,93529.66
2024-03-05T16:29:02.850Z,93522.41
2024-03-05T16:32:03.068Z,93561.97
2024-03-05T16:41:37.776Z,93498.56
2024-03-05T16:44:07.279Z,93518.09
2024-03-05T16:46:34.915Z,93504.72
2024-03-05T16:49:04.835Z,93572.06
2024-03-05T16:51:31.322Z,93524.41
2024-03-05T16:53:59.827Z,93564.81
2024-03-05T16:56:26.320Z,93546.75
2024-03-05T16:59:08.307Z,93518.88
2024-03-05T17:01:42.310Z,93408.59
2024-03-05T17:04:14.556Z,93434.22
2024-03-05T17:06:44.172Z,93442.34
2024-03-05T17:09:10.669Z,93552.50
2024-03-05T17:11:37.223Z,93571.63
2024-03-05T17:14:03.935Z,93555.00
2024-03-05T17:16:32.643Z,93516.13
2024-03-05T17:19:00.176Z,93569.88
2024-03-05T17:21:26.875Z,93560.38
2024-03-05T17:23:53.304Z,93562.72
2024-03-05T17:26:19.955Z,93548.59
2024-03-05T17:28:46.992Z,93557.72
2024-03-05T17:31:13.666Z,93563.25
2024-03-05T17:33:44.288Z,93569.88
2024-03-05T17:36:11.792Z,93601.56
2024-03-05T17:38:42.226Z,93560.13
2024-03-05T17:41:12.832Z,93493.06
2024-03-05T17:43:40.440Z,93587.22
2024-03-05T17:46:22.412Z,93558.97
2024-03-05T17:49:10.898Z,93435.19
2024-03-05T17:51:37.852Z,93630.00
2024-03-05T17:54:04.606Z,93610.25
2024-03-05T17:56:31.312Z,93621.44
2024-03-05T17:58:59.883Z,93617.63
2024-03-05T18:01:28.681Z,93617.88
2024-03-05T18:03:55.175Z,93612.56
2024-03-05T18:06:23.796Z,93647.34
2024-03-05T18:08:51.283Z,93570.88
2024-03-05T18:11:18.822Z,93603.63
2024-03-05T18:13:47.913Z,93644.09
2024-03-05T18:16:14.446Z,93609.69
2024-03-05T18:18:51.501Z,93638.22
2024-03-05T18:21:21.440Z,93622.69
2024-03-05T18:23:47.908Z,93621.75
2024-03-05T18:26:14.632Z,93622.59
2024-03-05T18:28:41.643Z,93633.59
2024-03-05T18:31:08.393Z,93618.75
2024-03-05T18:33:35.896Z,93612.19
2024-03-05T18:36:05.746Z,93622.59
2024-03-05T18:38:38.973Z,93623.84
2024-03-05T18:41:05.759Z,93609.50
2024-03-05T18:43:33.397Z,93610.31
2024-03-05T18:46:01.862Z,93630.00
2024-03-05T18:48:35.084Z,93641.72
2024-03-05T18:51:05.748Z,93622.84
2024-03-05T18:53:39.730Z,93596.56
2024-03-05T18:56:12.381Z,93654.50
2024-03-05T18:58:39.060Z,93621.41
2024-03-05T19:01:06.601Z,93608.28
2024-03-05T19:03:36.097Z,93659.34
2024-03-05T19:06:02.562Z,93639.69
2024-03-05T19:08:32.672Z,93617.06
2024-03-05T19:10:59.264Z,93640.25
2024-03-05T19:13:29.505Z,93618.59
2024-03-05T19:15:56.131Z,93610.28
2024-03-05T19:18:22.671Z,93629.19
2024-03-05T19:20:49.287Z,93618.75
2024-03-05T19:23:15.805Z,93631.97
2024-03-05T19:25:43.423Z,93623.91
2024-03-05T19:28:12.334Z,93658.47
2024-03-05T19:30:42.183Z,93653.97
2024-03-05T19:33:09.313Z,93601.06
2024-03-05T19:35:38.651Z,93636.22
2024-03-05T19:38:06.246Z,93632.19
2024-03-05T19:40:34.747Z,93598.75
2024-03-05T19:43:01.242Z,93651.06
2024-03-05T19:45:36.631Z,93597.13
2024-03-05T19:48:04.797Z,93618.16
2024-03-05T19:50:34.176Z,93651.34
2024-03-05T19:53:00.668Z,93649.41
2024-03-05T19:55:27.159Z,93643.28
2024-03-05T19:57:53.811Z,93642.78
2024-03-05T20:00:26.492Z,93638.91
2024-03-05T20:02:54.228Z,93598.44
2024-03-05T20:05:22.850Z,93628.75
2024-03-05T20:07:49.997Z,93602.28
2024-03-05T20:10:23.435Z,93671.19
2024-03-05T20:12:51.079Z,93670.03
2024-03-05T20:15:17.882Z,93663.25
2024-03-05T20:17:44.900Z,93655.19
2024-03-05T20:20:18.378Z,93631.13
2024-03-05T20:22:49.223Z,93652.53
2024-03-05T20:25:26.700Z,93663.19
2024-03-05T20:27:56.333Z,93628.44
2024-03-05T20:30:24.991Z,93657.53
2024-03-05T20:32:55.731Z,93632.34
2024-03-05T20:35:26.047Z,93629.53
2024-03-05T20:37:56.701Z,93626.63
2024-03-05T20:40:28.674Z,93644.72
2024-03-05T20:53:44.224Z,93675.66
2024-03-05T20:56:11.864Z,93650.50
2024-03-05T20:58:41.458Z,93635.34
2024-03-05T21:01:09.862Z,93604.03
2024-03-05T21:03:37.027Z,93654.06
2024-03-05T21:06:04.337Z,93583.03
2024-03-05T21:08:30.926Z,93663.78
2024-03-05T21:10:57.732Z,93649.22
2024-03-05T21:13:27.936Z,93673.75
2024-03-05T21:15:56.568Z,93629.88
2024-03-05T21:18:35.411Z,93619.84
2024-03-05T21:21:02.112Z,93653.75
2024-03-05T21:23:31.892Z,93651.50
2024-03-05T21:26:09.255Z,93668.63
2024-03-05T21:28:46.053Z,93638.88
2024-03-05T21:31:12.578Z,93638.56
2024-03-05T21:33:39.017Z,93650.53
2024-03-05T21:36:05.748Z,93652.94
2024-03-05T21:38:32.221Z,93676.34
2024-03-05T21:41:09.818Z,93663.13
2024-03-05T21:43:36.493Z,93614.69
2024-03-05T21:46:07.270Z,93640.38
2024-03-05T21:48:34.332Z,93655.06
2024-03-05T21:51:09.830Z,93658.94
2024-03-05T21:53:39.433Z,93651.84
2024-03-05T21:56:13.234Z,93658.00
2024-03-05T21:58:43.293Z,93679.94
2024-03-05T22:01:10.659Z,93677.19
2024-03-05T22:03:37.234Z,93671.72
2024-03-05T22:06:14.813Z,93670.75
2024-03-05T22:08:50.126Z,93675.75
2024-03-05T22:11:16.924Z,93686.09
2024-03-05T22:13:43.599Z,93705.31
2024-03-05T22:16:12.129Z,93681.91
2024-03-05T22:18:38.613Z,93672.69
2024-03-05T22:21:05.570Z,93690.94
2024-03-05T22:23:37.207Z,93710.31
2024-03-05T22:26:04.040Z,93682.38
2024-03-05T22:28:31.345Z,93690.94
2024-03-05T22:30:59.365Z,93682.38
2024-03-05T22:33:27.831Z,93676.41
2024-03-05T22:35:54.279Z,93671.88
2024-03-05T22:38:21.852Z,93665.75
2024-03-05T22:40:48.739Z,93670.94
2024-03-05T22:43:15.253Z,93700.94
2024-03-05T22:45:41.811Z,93665.75
2024-03-05T22:48:08.537Z,93663.16
2024-03-05T22:50:35.004Z,93694.81
2024-03-05T22:53:01.474Z,93673.47
2024-03-05T22:55:28.147Z,93678.66
2024-03-05T22:57:55.898Z,93701.59
2024-03-05T23:00:29.875Z,93693.50
2024-03-05T23:02:56.415Z,93691.91
2024-03-05T23:05:23.025Z,93677.06
2024-03-05T23:07:53.086Z,93642.94
2024-03-05T23:10:19.609Z,93712.59
2024-03-05T23:12:49.223Z,93709.66
2024-03-05T23:15:16.753Z,93673.63
2024-03-05T23:17:44.310Z,93685.75
2024-03-05T23:20:12.049Z,93700.00
2024-03-05T23:22:46.337Z,93624.06
2024-03-05T23:25:13.411Z,93692.88
2024-03-05T23:27:44.196Z,93707.44
2024-03-05T23:30:11.427Z,93677.38
2024-03-05T23:32:37.930Z,93676.72
2024-03-05T23:35:06.386Z,93655.69
2024-03-05T23:37:33.524Z,93649.88
2024-03-05T23:40:00.020Z,93694.81
2024-03-05T23:42:26.825Z,93628.56
2024-03-05T23:44:56.197Z,93682.84
2024-03-05T23:47:24.688Z,93697.88
2024-03-05T23:49:51.653Z,93720.50
2024-03-05T23:52:18.156Z,93693.81
2024-03-05T23:54:45.261Z,93684.41
2024-03-05T23:57:11.855Z,93694.75
2024-03-05T23:59:41.869Z,93674.75
